sensor_id;sensor_type;location;lat;lon;timestamp;pressure;altitude;pressure_sealevel;temperature;humidity
54308;BME280;40208;39.778;2.710;2022-09-30T00:01:32;100375.44;;;16.83;100.00
54308;BME280;40208;39.778;2.710;2022-09-30T00:04:21;100370.13;;;16.70;100.00
54308;BME280;40208;39.778;2.710;2022-09-30T00:07:06;100318.22;;;16.48;100.00
54308;BME280;40208;39.778;2.710;2022-09-30T00:09:51;100348.81;;;16.57;100.00
54308;BME280;40208;39.778;2.710;2022-09-30T00:12:36;100342.47;;;16.47;100.00
54308;BME280;40208;39.778;2.710;2022-09-30T00:15:21;100350.84;;;16.53;100.00
54308;BME280;40208;39.778;2.710;2022-09-30T00:18:06;100346.03;;;16.59;100.00
54308;BME280;40208;39.778;2.710;2022-09-30T00:20:51;100356.50;;;16.62;100.00
54308;BME280;40208;39.778;2.710;2022-09-30T00:23:37;100351.00;;;16.63;100.00
54308;BME280;40208;39.778;2.710;2022-09-30T00:26:23;100345.16;;;16.58;100.00
54308;BME280;40208;39.778;2.710;2022-09-30T00:29:09;100340.66;;;16.59;100.00
54308;BME280;40208;39.778;2.710;2022-09-30T00:31:54;100338.94;;;16.58;100.00
54308;BME280;40208;39.778;2.710;2022-09-30T00:34:39;100334.06;;;16.51;100.00
54308;BME280;40208;39.778;2.710;2022-09-30T00:37:24;100279.84;;;16.25;100.00
54308;BME280;40208;39.778;2.710;2022-09-30T00:40:09;100311.63;;;16.41;100.00
54308;BME280;40208;39.778;2.710;2022-09-30T00:42:55;100328.59;;;16.06;100.00
54308;BME280;40208;39.778;2.710;2022-09-30T00:45:47;100338.22;;;16.09;100.00
54308;BME280;40208;39.778;2.710;2022-09-30T00:48:35;100323.22;;;16.06;100.00
54308;BME280;40208;39.778;2.710;2022-09-30T00:51:38;100316.75;;;15.98;100.00
54308;BME280;40208;39.778;2.710;2022-09-30T00:54:28;100318.09;;;16.03;100.00
54308;BME280;40208;39.778;2.710;2022-09-30T00:57:15;100285.66;;;15.84;100.00
54308;BME280;40208;39.778;2.710;2022-09-30T01:00:00;100321.50;;;16.05;100.00
54308;BME280;40208;39.778;2.710;2022-09-30T01:02:47;100329.38;;;15.96;100.00
54308;BME280;40208;39.778;2.710;2022-09-30T01:05:33;100343.34;;;15.88;100.00
54308;BME280;40208;39.778;2.710;2022-09-30T01:08:19;100338.38;;;15.95;100.00
54308;BME280;40208;39.778;2.710;2022-09-30T01:11:05;100338.25;;;15.96;100.00
54308;BME280;40208;39.778;2.710;2022-09-30T01:13:53;100334.84;;;15.94;100.00
54308;BME280;40208;39.778;2.710;2022-09-30T01:17:03;100341.75;;;15.85;100.00
54308;BME280;40208;39.778;2.710;2022-09-30T01:26:07;100389.28;;;15.82;100.00
54308;BME280;40208;39.778;2.710;2022-09-30T01:36:04;100385.22;;;15.76;100.00
54308;BME280;40208;39.778;2.710;2022-09-30T01:42:11;100384.84;;;15.57;100.00
54308;BME280;40208;39.778;2.710;2022-09-30T01:50:58;100388.38;;;15.57;100.00
54308;BME280;40208;39.778;2.710;2022-09-30T01:54:13;100392.31;;;15.64;100.00
54308;BME280;40208;39.778;2.710;2022-09-30T02:00:09;100353.13;;;15.63;100.00
54308;BME280;40208;39.778;2.710;2022-09-30T02:03:03;100363.63;;;15.66;100.00
54308;BME280;40208;39.778;2.710;2022-09-30T02:05:54;100365.13;;;15.71;100.00
54308;BME280;40208;39.778;2.710;2022-09-30T02:08:46;100377.06;;;15.78;100.00
54308;BME280;40208;39.778;2.710;2022-09-30T02:11:34;100371.97;;;15.75;100.00
54308;BME280;40208;39.778;2.710;2022-09-30T02:14:40;100353.38;;;15.73;100.00
54308;BME280;40208;39.778;2.710;2022-09-30T02:17:31;100330.94;;;15.50;100.00
54308;BME280;40208;39.778;2.710;2022-09-30T02:20:27;100373.03;;;15.72;100.00
54308;BME280;40208;39.778;2.710;2022-09-30T02:23:19;100373.13;;;15.71;100.00
54308;BME280;40208;39.778;2.710;2022-09-30T02:26:19;100365.13;;;15.71;100.00
54308;BME280;40208;39.778;2.710;2022-09-30T02:29:27;100360.31;;;15.76;100.00
54308;BME280;40208;39.778;2.710;2022-09-30T02:32:37;100366.69;;;15.86;100.00
54308;BME280;40208;39.778;2.710;2022-09-30T02:38:21;100336.00;;;15.79;100.00
54308;BME280;40208;39.778;2.710;2022-09-30T02:41:11;100328.56;;;15.82;100.00
54308;BME280;40208;39.778;2.710;2022-09-30T02:43:59;100325.78;;;15.84;100.00
54308;BME280;40208;39.778;2.710;2022-09-30T02:46:55;100327.22;;;15.77;100.00
54308;BME280;40208;39.778;2.710;2022-09-30T02:49:48;100328.31;;;15.74;100.00
54308;BME280;40208;39.778;2.710;2022-09-30T02:52:52;100346.69;;;15.79;100.00
54308;BME280;40208;39.778;2.710;2022-09-30T02:59:02;100349.38;;;15.79;100.00
54308;BME280;40208;39.778;2.710;2022-09-30T03:01:47;100337.81;;;15.78;100.00
54308;BME280;40208;39.778;2.710;2022-09-30T03:04:33;100350.78;;;15.72;100.00
54308;BME280;40208;39.778;2.710;2022-09-30T03:07:19;100330.34;;;15.71;100.00
54308;BME280;40208;39.778;2.710;2022-09-30T03:10:15;100342.84;;;15.83;100.00
54308;BME280;40208;39.778;2.710;2022-09-30T03:23:24;100352.47;;;15.73;100.00
54308;BME280;40208;39.778;2.710;2022-09-30T03:26:24;100352.69;;;15.69;100.00
54308;BME280;40208;39.778;2.710;2022-09-30T03:29:31;100347.78;;;15.76;100.00
54308;BME280;40208;39.778;2.710;2022-09-30T03:47:16;100361.66;;;15.81;100.00
54308;BME280;40208;39.778;2.710;2022-09-30T03:50:07;100370.47;;;15.71;100.00
54308;BME280;40208;39.778;2.710;2022-09-30T03:52:54;100375.63;;;15.74;100.00
54308;BME280;40208;39.778;2.710;2022-09-30T03:55:44;100369.28;;;15.75;100.00
54308;BME280;40208;39.778;2.710;2022-09-30T03:58:31;100368.75;;;15.69;100.00
54308;BME280;40208;39.778;2.710;2022-09-30T04:01:19;100375.06;;;15.68;100.00
54308;BME280;40208;39.778;2.710;2022-09-30T04:04:04;100379.41;;;15.82;100.00
54308;BME280;40208;39.778;2.710;2022-09-30T04:06:49;100379.59;;;15.92;100.00
54308;BME280;40208;39.778;2.710;2022-09-30T04:09:35;100385.59;;;15.96;100.00
54308;BME280;40208;39.778;2.710;2022-09-30T04:12:20;100343.72;;;15.71;100.00
54308;BME280;40208;39.778;2.710;2022-09-30T04:15:05;100394.47;;;15.96;100.00
54308;BME280;40208;39.778;2.710;2022-09-30T04:17:51;100396.28;;;15.96;100.00
54308;BME280;40208;39.778;2.710;2022-09-30T04:20:37;100388.38;;;15.94;100.00
54308;BME280;40208;39.778;2.710;2022-09-30T04:23:21;100388.41;;;15.81;100.00
54308;BME280;40208;39.778;2.710;2022-09-30T04:26:11;100389.19;;;15.71;100.00
54308;BME280;40208;39.778;2.710;2022-09-30T04:28:56;100396.78;;;15.77;100.00
54308;BME280;40208;39.778;2.710;2022-09-30T04:31:42;100408.47;;;15.76;100.00
54308;BME280;40208;39.778;2.710;2022-09-30T04:34:27;100414.00;;;15.85;100.00
54308;BME280;40208;39.778;2.710;2022-09-30T04:37:12;100410.34;;;15.86;100.00
54308;BME280;40208;39.778;2.710;2022-09-30T04:39:57;100403.63;;;15.81;100.00
54308;BME280;40208;39.778;2.710;2022-09-30T04:42:43;100398.91;;;15.84;100.00
54308;BME280;40208;39.778;2.710;2022-09-30T04:45:28;100386.09;;;15.77;100.00
54308;BME280;40208;39.778;2.710;2022-09-30T04:48:13;100403.22;;;15.74;100.00
54308;BME280;40208;39.778;2.710;2022-09-30T04:50:59;100370.91;;;15.52;100.00
54308;BME280;40208;39.778;2.710;2022-09-30T04:53:45;100404.81;;;15.77;100.00
54308;BME280;40208;39.778;2.710;2022-09-30T04:56:30;100400.88;;;15.57;100.00
54308;BME280;40208;39.778;2.710;2022-09-30T04:59:15;100402.78;;;15.67;100.00
54308;BME280;40208;39.778;2.710;2022-09-30T05:01:59;100413.38;;;15.69;100.00
54308;BME280;40208;39.778;2.710;2022-09-30T05:04:45;100423.13;;;15.70;100.00
54308;BME280;40208;39.778;2.710;2022-09-30T05:07:30;100428.28;;;15.73;100.00
54308;BME280;40208;39.778;2.710;2022-09-30T05:10:15;100427.59;;;15.69;100.00
54308;BME280;40208;39.778;2.710;2022-09-30T05:13:00;100431.34;;;15.67;100.00
54308;BME280;40208;39.778;2.710;2022-09-30T05:15:47;100436.81;;;15.65;100.00
54308;BME280;40208;39.778;2.710;2022-09-30T05:18:33;100443.00;;;15.66;100.00
54308;BME280;40208;39.778;2.710;2022-09-30T05:21:18;100434.25;;;15.64;100.00
54308;BME280;40208;39.778;2.710;2022-09-30T05:24:04;100437.25;;;15.59;100.00
54308;BME280;40208;39.778;2.710;2022-09-30T05:26:49;100447.97;;;15.46;100.00
54308;BME280;40208;39.778;2.710;2022-09-30T05:29:34;100457.81;;;15.46;100.00
54308;BME280;40208;39.778;2.710;2022-09-30T05:32:18;100465.84;;;15.46;100.00
54308;BME280;40208;39.778;2.710;2022-09-30T05:35:05;100479.44;;;15.43;100.00
54308;BME280;40208;39.778;2.710;2022-09-30T05:37:50;100483.03;;;15.42;100.00
54308;BME280;40208;39.778;2.710;2022-09-30T05:40:38;100497.63;;;15.38;100.00
54308;BME280;40208;39.778;2.710;2022-09-30T05:43:23;100487.75;;;15.25;100.00
54308;BME280;40208;39.778;2.710;2022-09-30T05:46:08;100512.78;;;15.37;100.00
54308;BME280;40208;39.778;2.710;2022-09-30T05:48:53;100523.16;;;15.42;100.00
54308;BME280;40208;39.778;2.710;2022-09-30T05:51:38;100523.38;;;15.39;100.00
54308;BME280;40208;39.778;2.710;2022-09-30T05:54:23;100532.56;;;15.35;100.00
54308;BME280;40208;39.778;2.710;2022-09-30T05:57:08;100535.25;;;15.35;100.00
54308;BME280;40208;39.778;2.710;2022-09-30T05:59:54;100538.47;;;15.40;100.00
54308;BME280;40208;39.778;2.710;2022-09-30T06:02:39;100535.59;;;15.43;100.00
54308;BME280;40208;39.778;2.710;2022-09-30T06:05:25;100568.22;;;15.48;100.00
54308;BME280;40208;39.778;2.710;2022-09-30T06:08:11;100592.41;;;15.59;100.00
54308;BME280;40208;39.778;2.710;2022-09-30T06:10:56;100583.19;;;15.38;100.00
54308;BME280;40208;39.778;2.710;2022-09-30T06:13:45;100602.22;;;15.59;100.00
54308;BME280;40208;39.778;2.710;2022-09-30T06:16:31;100645.84;;;15.74;100.00
54308;BME280;40208;39.778;2.710;2022-09-30T06:19:16;100671.84;;;15.84;100.00
54308;BME280;40208;39.778;2.710;2022-09-30T06:22:01;100657.19;;;15.77;100.00
54308;BME280;40208;39.778;2.710;2022-09-30T06:24:46;100669.09;;;15.86;100.00
54308;BME280;40208;39.778;2.710;2022-09-30T06:27:34;100667.16;;;15.88;100.00
54308;BME280;40208;39.778;2.710;2022-09-30T06:30:20;100683.00;;;15.78;100.00
54308;BME280;40208;39.778;2.710;2022-09-30T06:33:05;100684.66;;;15.66;100.00
54308;BME280;40208;39.778;2.710;2022-09-30T06:35:50;100697.75;;;15.71;100.00
54308;BME280;40208;39.778;2.710;2022-09-30T06:38:35;100690.72;;;15.56;100.00
54308;BME280;40208;39.778;2.710;2022-09-30T06:41:21;100693.41;;;15.83;100.00
54308;BME280;40208;39.778;2.710;2022-09-30T06:44:09;100640.41;;;15.35;100.00
54308;BME280;40208;39.778;2.710;2022-09-30T06:46:54;100684.59;;;15.41;100.00
54308;BME280;40208;39.778;2.710;2022-09-30T06:49:40;100690.22;;;15.23;100.00
54308;BME280;40208;39.778;2.710;2022-09-30T06:52:25;100661.25;;;15.03;100.00
54308;BME280;40208;39.778;2.710;2022-09-30T06:55:10;100668.69;;;15.12;100.00
54308;BME280;40208;39.778;2.710;2022-09-30T06:57:56;100639.47;;;14.82;100.00
54308;BME280;40208;39.778;2.710;2022-09-30T07:00:41;100659.22;;;15.06;100.00
54308;BME280;40208;39.778;2.710;2022-09-30T07:03:27;100653.78;;;15.08;100.00
54308;BME280;40208;39.778;2.710;2022-09-30T07:06:14;100646.03;;;14.91;100.00
54308;BME280;40208;39.778;2.710;2022-09-30T07:09:00;100606.53;;;14.54;100.00
54308;BME280;40208;39.778;2.710;2022-09-30T07:11:45;100614.16;;;14.46;100.00
54308;BME280;40208;39.778;2.710;2022-09-30T07:14:30;100624.78;;;14.33;100.00
54308;BME280;40208;39.778;2.710;2022-09-30T07:17:15;100605.78;;;14.09;100.00
54308;BME280;40208;39.778;2.710;2022-09-30T07:20:00;100597.50;;;13.99;100.00
54308;BME280;40208;39.778;2.710;2022-09-30T07:22:45;100606.84;;;14.07;100.00
54308;BME280;40208;39.778;2.710;2022-09-30T07:25:31;100647.28;;;14.00;100.00
54308;BME280;40208;39.778;2.710;2022-09-30T07:28:16;100660.41;;;14.04;100.00
54308;BME280;40208;39.778;2.710;2022-09-30T07:31:11;100667.84;;;13.98;100.00
54308;BME280;40208;39.778;2.710;2022-09-30T07:33:56;100677.19;;;14.06;100.00
54308;BME280;40208;39.778;2.710;2022-09-30T07:36:41;100692.06;;;14.10;100.00
54308;BME280;40208;39.778;2.710;2022-09-30T07:39:26;100703.53;;;14.12;100.00
54308;BME280;40208;39.778;2.710;2022-09-30T07:42:13;100697.75;;;13.89;100.00
54308;BME280;40208;39.778;2.710;2022-09-30T07:44:58;100722.47;;;14.07;100.00
54308;BME280;40208;39.778;2.710;2022-09-30T07:47:42;100720.88;;;14.19;100.00
54308;BME280;40208;39.778;2.710;2022-09-30T07:50:27;100721.81;;;14.32;100.00
54308;BME280;40208;39.778;2.710;2022-09-30T07:53:13;100731.66;;;14.46;100.00
54308;BME280;40208;39.778;2.710;2022-09-30T07:56:05;100739.78;;;14.59;100.00
54308;BME280;40208;39.778;2.710;2022-09-30T07:58:59;100753.03;;;14.75;100.00
54308;BME280;40208;39.778;2.710;2022-09-30T08:01:44;100750.84;;;14.81;100.00
54308;BME280;40208;39.778;2.710;2022-09-30T08:04:29;100755.91;;;14.86;100.00
54308;BME280;40208;39.778;2.710;2022-09-30T08:07:14;100753.69;;;14.93;100.00
54308;BME280;40208;39.778;2.710;2022-09-30T08:09:59;100763.13;;;14.98;100.00
54308;BME280;40208;39.778;2.710;2022-09-30T08:12:44;100764.53;;;15.04;100.00
54308;BME280;40208;39.778;2.710;2022-09-30T08:15:29;100769.41;;;15.12;100.00
54308;BME280;40208;39.778;2.710;2022-09-30T08:18:14;100771.66;;;15.18;100.00
54308;BME280;40208;39.778;2.710;2022-09-30T08:21:04;100783.38;;;15.30;100.00
54308;BME280;40208;39.778;2.710;2022-09-30T08:23:50;100776.28;;;15.43;100.00
54308;BME280;40208;39.778;2.710;2022-09-30T08:26:35;100790.22;;;15.48;100.00
54308;BME280;40208;39.778;2.710;2022-09-30T08:29:21;100790.59;;;15.42;100.00
54308;BME280;40208;39.778;2.710;2022-09-30T08:32:05;100805.66;;;15.57;100.00
54308;BME280;40208;39.778;2.710;2022-09-30T08:34:50;100808.03;;;15.62;100.00
54308;BME280;40208;39.778;2.710;2022-09-30T08:37:35;100838.22;;;15.64;100.00
54308;BME280;40208;39.778;2.710;2022-09-30T08:40:24;100790.84;;;15.52;100.00
54308;BME280;40208;39.778;2.710;2022-09-30T08:43:35;100817.09;;;15.74;100.00
54308;BME280;40208;39.778;2.710;2022-09-30T08:52:31;100833.38;;;16.10;100.00
54308;BME280;40208;39.778;2.710;2022-09-30T08:55:23;100842.06;;;16.27;100.00
54308;BME280;40208;39.778;2.710;2022-09-30T08:58:25;100855.69;;;16.37;100.00
54308;BME280;40208;39.778;2.710;2022-09-30T09:01:33;100864.63;;;16.50;100.00
54308;BME280;40208;39.778;2.710;2022-09-30T09:04:19;100878.25;;;16.60;100.00
54308;BME280;40208;39.778;2.710;2022-09-30T09:19:07;100912.47;;;16.29;100.00
54308;BME280;40208;39.778;2.710;2022-09-30T09:21:56;100909.47;;;16.21;100.00
54308;BME280;40208;39.778;2.710;2022-09-30T09:24:46;100913.44;;;16.28;100.00
54308;BME280;40208;39.778;2.710;2022-09-30T09:30:47;100915.44;;;16.64;100.00
54308;BME280;40208;39.778;2.710;2022-09-30T09:33:38;100926.38;;;16.74;100.00
54308;BME280;40208;39.778;2.710;2022-09-30T09:36:34;100918.34;;;16.74;100.00
54308;BME280;40208;39.778;2.710;2022-09-30T09:48:14;100933.72;;;17.10;100.00
54308;BME280;40208;39.778;2.710;2022-09-30T09:53:50;100913.88;;;17.26;100.00
54308;BME280;40208;39.778;2.710;2022-09-30T09:56:36;100889.09;;;17.22;100.00
54308;BME280;40208;39.778;2.710;2022-09-30T09:59:21;100939.13;;;17.60;100.00
54308;BME280;40208;39.778;2.710;2022-09-30T10:02:27;100939.00;;;17.74;100.00
54308;BME280;40208;39.778;2.710;2022-09-30T10:05:22;100944.03;;;17.92;100.00
54308;BME280;40208;39.778;2.710;2022-09-30T10:08:18;100943.63;;;18.09;100.00
54308;BME280;40208;39.778;2.710;2022-09-30T10:11:05;100937.34;;;18.21;100.00
54308;BME280;40208;39.778;2.710;2022-09-30T10:13:56;100924.03;;;18.44;100.00
54308;BME280;40208;39.778;2.710;2022-09-30T10:16:42;100926.78;;;18.67;100.00
54308;BME280;40208;39.778;2.710;2022-09-30T10:19:29;100924.19;;;18.89;100.00
54308;BME280;40208;39.778;2.710;2022-09-30T10:25:23;100922.13;;;19.26;100.00
54308;BME280;40208;39.778;2.710;2022-09-30T10:28:21;100905.13;;;19.26;100.00
54308;BME280;40208;39.778;2.710;2022-09-30T10:31:09;100876.25;;;19.17;100.00
54308;BME280;40208;39.778;2.710;2022-09-30T10:33:58;100905.88;;;19.39;100.00
54308;BME280;40208;39.778;2.710;2022-09-30T10:36:44;100920.28;;;19.38;100.00
54308;BME280;40208;39.778;2.710;2022-09-30T10:39:37;100925.44;;;19.41;100.00
54308;BME280;40208;39.778;2.710;2022-09-30T10:42:26;100911.72;;;19.56;100.00
54308;BME280;40208;39.778;2.710;2022-09-30T10:45:21;100910.63;;;19.58;100.00
54308;BME280;40208;39.778;2.710;2022-09-30T10:48:16;100907.19;;;19.56;100.00
54308;BME280;40208;39.778;2.710;2022-09-30T10:51:03;100923.59;;;19.76;100.00
54308;BME280;40208;39.778;2.710;2022-09-30T10:53:50;100908.53;;;19.84;100.00
54308;BME280;40208;39.778;2.710;2022-09-30T10:56:39;100916.06;;;20.02;100.00
54308;BME280;40208;39.778;2.710;2022-09-30T10:59:32;100919.69;;;20.12;100.00
54308;BME280;40208;39.778;2.710;2022-09-30T11:02:29;100930.44;;;20.23;100.00
54308;BME280;40208;39.778;2.710;2022-09-30T11:05:22;100927.97;;;20.31;100.00
54308;BME280;40208;39.778;2.710;2022-09-30T11:11:23;100940.16;;;20.47;100.00
54308;BME280;40208;39.778;2.710;2022-09-30T11:17:26;100923.38;;;20.43;100.00
54308;BME280;40208;39.778;2.710;2022-09-30T11:20:25;100946.25;;;20.60;100.00
54308;BME280;40208;39.778;2.710;2022-09-30T11:26:15;100940.13;;;20.58;100.00
54308;BME280;40208;39.778;2.710;2022-09-30T11:38:38;100953.84;;;20.55;100.00
54308;BME280;40208;39.778;2.710;2022-09-30T11:41:39;100964.03;;;20.51;100.00
54308;BME280;40208;39.778;2.710;2022-09-30T11:44:33;100962.44;;;20.49;100.00
54308;BME280;40208;39.778;2.710;2022-09-30T11:53:35;100970.53;;;20.49;100.00
54308;BME280;40208;39.778;2.710;2022-09-30T11:59:54;100965.38;;;20.57;100.00
54308;BME280;40208;39.778;2.710;2022-09-30T12:02:52;100952.88;;;20.56;100.00
54308;BME280;40208;39.778;2.710;2022-09-30T12:05:47;100949.44;;;20.54;100.00
54308;BME280;40208;39.778;2.710;2022-09-30T12:08:47;100946.66;;;20.44;100.00
54308;BME280;40208;39.778;2.710;2022-09-30T12:14:39;100964.16;;;20.50;100.00
54308;BME280;40208;39.778;2.710;2022-09-30T12:17:30;100952.28;;;20.52;100.00
54308;BME280;40208;39.778;2.710;2022-09-30T12:20:26;100953.13;;;20.53;100.00
54308;BME280;40208;39.778;2.710;2022-09-30T12:23:33;100948.56;;;20.65;100.00
54308;BME280;40208;39.778;2.710;2022-09-30T12:26:19;100950.53;;;20.84;100.00
54308;BME280;40208;39.778;2.710;2022-09-30T12:29:11;100960.78;;;21.11;100.00
54308;BME280;40208;39.778;2.710;2022-09-30T12:35:29;100963.78;;;21.38;100.00
54308;BME280;40208;39.778;2.710;2022-09-30T12:47:55;100952.19;;;21.88;100.00
54308;BME280;40208;39.778;2.710;2022-09-30T12:50:48;100969.28;;;21.98;100.00
54308;BME280;40208;39.778;2.710;2022-09-30T12:53:39;100942.78;;;21.83;100.00
54308;BME280;40208;39.778;2.710;2022-09-30T12:56:27;100978.94;;;22.01;100.00
54308;BME280;40208;39.778;2.710;2022-09-30T12:59:12;100981.53;;;22.02;100.00
54308;BME280;40208;39.778;2.710;2022-09-30T13:01:59;100962.19;;;21.97;100.00
54308;BME280;40208;39.778;2.710;2022-09-30T13:04:46;100968.41;;;21.88;100.00
54308;BME280;40208;39.778;2.710;2022-09-30T13:07:34;100946.03;;;21.67;100.00
54308;BME280;40208;39.778;2.710;2022-09-30T13:10:28;100958.41;;;21.79;100.00
54308;BME280;40208;39.778;2.710;2022-09-30T13:13:24;100963.94;;;21.77;100.00
54308;BME280;40208;39.778;2.710;2022-09-30T13:16:09;100966.38;;;21.80;100.00
54308;BME280;40208;39.778;2.710;2022-09-30T13:18:59;100965.41;;;21.81;100.00
54308;BME280;40208;39.778;2.710;2022-09-30T13:21:44;100975.09;;;21.94;100.00
54308;BME280;40208;39.778;2.710;2022-09-30T13:27:52;100983.38;;;22.02;100.00
54308;BME280;40208;39.778;2.710;2022-09-30T13:31:11;100951.59;;;21.85;100.00
54308;BME280;40208;39.778;2.710;2022-09-30T13:48:27;100992.00;;;22.27;100.00
54308;BME280;40208;39.778;2.710;2022-09-30T13:51:15;100994.56;;;22.28;100.00
54308;BME280;40208;39.778;2.710;2022-09-30T13:54:06;100997.53;;;22.25;100.00
54308;BME280;40208;39.778;2.710;2022-09-30T13:56:52;100988.00;;;22.21;100.00
54308;BME280;40208;39.778;2.710;2022-09-30T14:00:14;101006.47;;;22.26;100.00
54308;BME280;40208;39.778;2.710;2022-09-30T14:06:20;101008.34;;;22.25;100.00
54308;BME280;40208;39.778;2.710;2022-09-30T14:15:34;101027.13;;;22.27;100.00
54308;BME280;40208;39.778;2.710;2022-09-30T14:18:54;101025.16;;;22.29;100.00
54308;BME280;40208;39.778;2.710;2022-09-30T14:21:54;101034.66;;;22.23;100.00
54308;BME280;40208;39.778;2.710;2022-09-30T14:24:41;101043.34;;;22.27;100.00
54308;BME280;40208;39.778;2.710;2022-09-30T14:30:22;101003.28;;;22.01;100.00
54308;BME280;40208;39.778;2.710;2022-09-30T14:36:01;101056.53;;;22.20;100.00
54308;BME280;40208;39.778;2.710;2022-09-30T14:38:57;101063.00;;;22.29;100.00
54308;BME280;40208;39.778;2.710;2022-09-30T14:42:04;101065.97;;;22.26;100.00
54308;BME280;40208;39.778;2.710;2022-09-30T14:44:50;101077.91;;;22.23;100.00
54308;BME280;40208;39.778;2.710;2022-09-30T14:47:43;101074.97;;;22.26;100.00
54308;BME280;40208;39.778;2.710;2022-09-30T14:50:35;101076.66;;;22.27;100.00
54308;BME280;40208;39.778;2.710;2022-09-30T14:53:33;101075.41;;;22.31;100.00
54308;BME280;40208;39.778;2.710;2022-09-30T14:56:27;101078.09;;;22.31;100.00
54308;BME280;40208;39.778;2.710;2022-09-30T14:59:19;101080.94;;;22.30;100.00
54308;BME280;40208;39.778;2.710;2022-09-30T15:02:14;101080.22;;;22.28;100.00
54308;BME280;40208;39.778;2.710;2022-09-30T15:05:03;101075.38;;;22.21;100.00
54308;BME280;40208;39.778;2.710;2022-09-30T15:07:49;101088.31;;;22.28;100.00
54308;BME280;40208;39.778;2.710;2022-09-30T15:10:34;101090.06;;;22.29;100.00
54308;BME280;40208;39.778;2.710;2022-09-30T15:13:21;101066.03;;;22.05;100.00
54308;BME280;40208;39.778;2.710;2022-09-30T15:16:28;101066.44;;;22.00;100.00
54308;BME280;40208;39.778;2.710;2022-09-30T15:19:22;101096.78;;;22.13;100.00
54308;BME280;40208;39.778;2.710;2022-09-30T15:22:09;101076.25;;;22.01;100.00
54308;BME280;40208;39.778;2.710;2022-09-30T15:24:56;101088.31;;;21.97;100.00
54308;BME280;40208;39.778;2.710;2022-09-30T15:27:44;101090.72;;;21.90;100.00
54308;BME280;40208;39.778;2.710;2022-09-30T15:30:29;101107.13;;;21.98;100.00
54308;BME280;40208;39.778;2.710;2022-09-30T15:33:16;101106.38;;;21.96;100.00
54308;BME280;40208;39.778;2.710;2022-09-30T15:36:16;101075.41;;;21.70;100.00
54308;BME280;40208;39.778;2.710;2022-09-30T15:39:02;101095.88;;;21.72;100.00
54308;BME280;40208;39.778;2.710;2022-09-30T15:41:47;101116.09;;;21.78;100.00
54308;BME280;40208;39.778;2.710;2022-09-30T15:44:37;101126.91;;;21.78;100.00
54308;BME280;40208;39.778;2.710;2022-09-30T15:47:22;101122.63;;;21.75;100.00
54308;BME280;40208;39.778;2.710;2022-09-30T15:50:38;101127.72;;;21.69;100.00
54308;BME280;40208;39.778;2.710;2022-09-30T15:59:18;101145.25;;;21.53;100.00
54308;BME280;40208;39.778;2.710;2022-09-30T16:02:03;101148.22;;;21.50;100.00
54308;BME280;40208;39.778;2.710;2022-09-30T16:04:50;101127.88;;;21.35;100.00
54308;BME280;40208;39.778;2.710;2022-09-30T16:07:35;101152.78;;;21.38;100.00
54308;BME280;40208;39.778;2.710;2022-09-30T16:10:20;101153.91;;;21.36;100.00
54308;BME280;40208;39.778;2.710;2022-09-30T16:13:06;101154.97;;;21.24;100.00
54308;BME280;40208;39.778;2.710;2022-09-30T16:15:52;101157.81;;;21.11;100.00
54308;BME280;40208;39.778;2.710;2022-09-30T16:18:42;101170.91;;;21.15;100.00
54308;BME280;40208;39.778;2.710;2022-09-30T16:21:43;101175.19;;;21.18;100.00
54308;BME280;40208;39.778;2.710;2022-09-30T16:27:23;101182.28;;;20.98;100.00
54308;BME280;40208;39.778;2.710;2022-09-30T16:30:15;101183.88;;;20.89;100.00
54308;BME280;40208;39.778;2.710;2022-09-30T16:33:04;101181.56;;;20.85;100.00
54308;BME280;40208;39.778;2.710;2022-09-30T16:35:50;101186.84;;;20.75;100.00
54308;BME280;40208;39.778;2.710;2022-09-30T16:38:35;101193.38;;;20.72;100.00
54308;BME280;40208;39.778;2.710;2022-09-30T16:41:20;101192.41;;;20.62;100.00
54308;BME280;40208;39.778;2.710;2022-09-30T16:44:05;101203.56;;;20.58;100.00
54308;BME280;40208;39.778;2.710;2022-09-30T16:46:49;101200.72;;;20.48;100.00
54308;BME280;40208;39.778;2.710;2022-09-30T16:49:35;101206.59;;;20.42;100.00
54308;BME280;40208;39.778;2.710;2022-09-30T16:52:19;101206.19;;;20.24;100.00
54308;BME280;40208;39.778;2.710;2022-09-30T16:55:05;101200.69;;;20.14;100.00
54308;BME280;40208;39.778;2.710;2022-09-30T16:57:51;101213.41;;;20.12;100.00
54308;BME280;40208;39.778;2.710;2022-09-30T17:00:41;101219.41;;;20.04;100.00
54308;BME280;40208;39.778;2.710;2022-09-30T17:03:28;101234.91;;;19.78;100.00
54308;BME280;40208;39.778;2.710;2022-09-30T17:06:15;101211.72;;;19.40;100.00
54308;BME280;40208;39.778;2.710;2022-09-30T17:09:03;101249.38;;;19.53;100.00
54308;BME280;40208;39.778;2.710;2022-09-30T17:11:48;101261.31;;;19.49;100.00
54308;BME280;40208;39.778;2.710;2022-09-30T17:14:37;101223.19;;;19.07;100.00
54308;BME280;40208;39.778;2.710;2022-09-30T17:17:22;101274.31;;;19.31;100.00
54308;BME280;40208;39.778;2.710;2022-09-30T17:20:08;101280.16;;;19.25;100.00
54308;BME280;40208;39.778;2.710;2022-09-30T17:22:53;101279.06;;;19.03;100.00
54308;BME280;40208;39.778;2.710;2022-09-30T17:25:39;101285.66;;;18.87;100.00
54308;BME280;40208;39.778;2.710;2022-09-30T17:28:27;101291.13;;;18.85;100.00
54308;BME280;40208;39.778;2.710;2022-09-30T17:31:12;101292.75;;;18.75;100.00
54308;BME280;40208;39.778;2.710;2022-09-30T17:33:56;101296.63;;;18.71;100.00